Time;durP1;ratioP1;P1;durP2;ratioP2;P2;SDS_P1;SDS_P2;PMS_P1;PMS_P2;Temp;Humidity;BMP_temperature;BMP_pressure;BME280_temperature;BME280_humidity;BME280_pressure;Samples;Min_cycle;Max_cycle;Signal;HPM_P1;HPM_P2
2023/06/29 18:08:09;;;;;;;5.10;2.85;;;22.40;99.90;;;;;;5128640;27;20321;-70
2023/06/29 18:10:36;;;;;;;5.38;2.55;;;22.10;99.90;;;;;;5127033;28;20123;-71
2023/06/29 18:13:01;;;;;;;4.70;2.20;;;22.10;99.90;;;;;;5107543;28;20125;-70
2023/06/29 18:15:27;;;;;;;3.58;2.00;;;22.00;99.90;;;;;;5107896;28;20117;-68
2023/06/29 18:17:53;;;;;;;4.85;2.10;;;22.00;99.90;;;;;;5109089;28;20790;-68
2023/06/29 18:20:20;;;;;;;2.58;1.50;;;22.00;99.90;;;;;;5110516;28;20054;-69
2023/06/29 18:22:46;;;;;;;3.30;1.63;;;21.90;99.90;;;;;;5108375;28;20077;-68
2023/06/29 18:25:11;;;;;;;2.60;1.60;;;21.80;99.90;;;;;;5108886;28;20028;-70
2023/06/29 18:27:37;;;;;;;2.33;1.00;;;21.70;99.90;;;;;;5109064;28;20039;-69
2023/06/29 18:30:03;;;;;;;2.75;1.27;;;21.60;99.90;;;;;;5107368;28;20148;-69
2023/06/29 18:32:29;;;;;;;1.80;1.05;;;21.50;99.90;;;;;;5108831;28;20060;-69
2023/06/29 18:34:54;;;;;;;2.63;1.40;;;21.30;99.90;;;;;;5108310;28;20044;-71
2023/06/29 18:37:20;;;;;;;1.85;1.20;;;21.10;99.90;;;;;;5120320;28;20270;-73
2023/06/29 18:39:45;;;;;;;1.63;1.13;;;21.00;99.90;;;;;;5109844;28;20028;-81
2023/06/29 18:42:11;;;;;;;1.75;1.10;;;20.80;99.90;;;;;;5107382;28;20024;-75
2023/06/29 18:44:37;;;;;;;1.98;1.20;;;20.80;99.90;;;;;;5107134;28;20111;-77
2023/06/29 18:47:03;;;;;;;4.32;1.00;;;20.70;99.90;;;;;;5107711;28;20071;-76
2023/06/29 18:49:29;;;;;;;0.75;0.70;;;20.60;99.90;;;;;;5106571;28;20111;-73
2023/06/29 18:51:54;;;;;;;0.70;0.70;;;20.50;99.90;;;;;;5107989;28;20093;-74
2023/06/29 18:54:20;;;;;;;1.02;0.68;;;20.40;99.90;;;;;;5108765;28;20544;-73
2023/06/29 18:56:46;;;;;;;1.70;0.68;;;20.20;99.90;;;;;;5108495;28;20028;-75
2023/06/29 18:59:12;;;;;;;1.02;0.60;;;20.10;99.90;;;;;;5107480;28;20024;-75
2023/06/29 19:01:38;;;;;;;2.67;0.80;;;20.00;99.90;;;;;;5107930;28;20024;-75
2023/06/29 19:04:04;;;;;;;1.58;0.90;;;19.90;99.90;;;;;;5109830;28;20329;-71
2023/06/29 19:06:29;;;;;;;3.97;0.90;;;19.80;99.90;;;;;;5126448;28;20108;-77
2023/06/29 19:08:55;;;;;;;0.75;0.70;;;19.80;99.90;;;;;;5127122;28;20019;-76
2023/06/29 19:11:21;;;;;;;1.27;0.80;;;19.80;99.90;;;;;;5125737;28;20088;-74
2023/06/29 19:13:47;;;;;;;1.52;0.80;;;19.80;99.90;;;;;;5128256;27;20047;-77
2023/06/29 19:16:13;;;;;;;2.55;1.08;;;19.70;99.90;;;;;;5127607;27;20071;-76
2023/06/29 19:18:39;;;;;;;2.22;0.80;;;19.60;99.90;;;;;;5119047;27;20020;-75
2023/06/29 19:21:05;;;;;;;1.35;0.73;;;19.60;99.90;;;;;;5112258;28;20068;-72
2023/06/29 19:23:31;;;;;;;1.50;0.70;;;19.60;99.90;;;;;;5114374;28;20039;-70
2023/06/29 19:25:56;;;;;;;1.88;1.10;;;19.60;99.90;;;;;;5097613;28;20469;-71
2023/06/29 19:28:22;;;;;;;1.00;0.75;;;19.50;99.90;;;;;;5093920;28;20039;-70
2023/06/29 19:30:48;;;;;;;0.70;0.50;;;19.50;99.90;;;;;;5093836;28;20020;-73
2023/06/29 19:33:13;;;;;;;2.28;1.20;;;19.50;99.90;;;;;;5093417;28;20130;-77
2023/06/29 19:35:39;;;;;;;0.40;0.40;;;19.40;99.90;;;;;;5094500;28;20432;-76
2023/06/29 19:38:05;;;;;;;0.95;0.70;;;19.40;99.90;;;;;;5113579;28;20031;-75
2023/06/29 19:40:30;;;;;;;1.95;0.90;;;19.30;99.90;;;;;;5106844;28;20119;-75
2023/06/29 19:42:56;;;;;;;1.23;0.70;;;19.10;99.90;;;;;;5113268;28;20031;-75
2023/06/29 19:45:22;;;;;;;1.58;1.20;;;18.90;99.90;;;;;;5112568;28;20532;-75
2023/06/29 19:47:48;;;;;;;1.65;0.88;;;18.80;99.90;;;;;;5111185;28;20040;-72
2023/06/29 19:50:13;;;;;;;2.67;0.90;;;18.70;99.90;;;;;;5114710;28;20020;-76
2023/06/29 19:52:39;;;;;;;1.15;1.05;;;18.40;99.90;;;;;;5111581;28;20050;-74
2023/06/29 19:55:05;;;;;;;2.53;1.27;;;18.30;99.90;;;;;;5097524;28;20100;-76
2023/06/29 19:57:31;;;;;;;2.58;1.20;;;18.20;99.90;;;;;;5108693;28;20055;-71
2023/06/29 19:59:56;;;;;;;2.28;1.33;;;18.10;99.90;;;;;;5111578;28;20028;-67
2023/06/29 20:02:22;;;;;;;3.17;1.30;;;18.00;99.90;;;;;;5092506;28;20365;-75
